sensor_id;sensor_type;location;lat;lon;timestamp;P1;durP1;ratioP1;P2;durP2;ratioP2
13991;SDS011;7070;53.586;9.692;2022-10-16T00:00:37;0.40;;;0.40;;
13991;SDS011;7070;53.586;9.692;2022-10-16T00:03:06;0.40;;;0.40;;
13991;SDS011;7070;53.586;9.692;2022-10-16T00:05:37;0.40;;;0.40;;
13991;SDS011;7070;53.586;9.692;2022-10-16T00:08:05;0.40;;;0.40;;
13991;SDS011;7070;53.586;9.692;2022-10-16T00:10:32;0.40;;;0.40;;
13991;SDS011;7070;53.586;9.692;2022-10-16T00:12:59;0.40;;;0.40;;
13991;SDS011;7070;53.586;9.692;2022-10-16T00:15:27;0.50;;;0.50;;
13991;SDS011;7070;53.586;9.692;2022-10-16T00:17:54;0.40;;;0.40;;
13991;SDS011;7070;53.586;9.692;2022-10-16T00:20:21;0.40;;;0.40;;
13991;SDS011;7070;53.586;9.692;2022-10-16T00:22:48;0.40;;;0.40;;
13991;SDS011;7070;53.586;9.692;2022-10-16T00:25:14;0.40;;;0.40;;
13991;SDS011;7070;53.586;9.692;2022-10-16T00:27:41;0.50;;;0.50;;
13991;SDS011;7070;53.586;9.692;2022-10-16T00:30:08;0.40;;;0.40;;
13991;SDS011;7070;53.586;9.692;2022-10-16T00:32:37;0.40;;;0.40;;
13991;SDS011;7070;53.586;9.692;2022-10-16T00:35:04;0.40;;;0.40;;
13991;SDS011;7070;53.586;9.692;2022-10-16T00:37:31;0.50;;;0.50;;
13991;SDS011;7070;53.586;9.692;2022-10-16T00:39:58;0.50;;;0.50;;
13991;SDS011;7070;53.586;9.692;2022-10-16T00:42:25;0.40;;;0.40;;
13991;SDS011;7070;53.586;9.692;2022-10-16T00:44:52;0.50;;;0.50;;
13991;SDS011;7070;53.586;9.692;2022-10-16T00:47:22;0.40;;;0.40;;
13991;SDS011;7070;53.586;9.692;2022-10-16T00:49:55;0.50;;;0.50;;
13991;SDS011;7070;53.586;9.692;2022-10-16T00:52:25;0.40;;;0.40;;
13991;SDS011;7070;53.586;9.692;2022-10-16T00:54:52;0.40;;;0.40;;
13991;SDS011;7070;53.586;9.692;2022-10-16T00:57:20;0.40;;;0.40;;
13991;SDS011;7070;53.586;9.692;2022-10-16T00:59:48;0.40;;;0.40;;
13991;SDS011;7070;53.586;9.692;2022-10-16T01:02:15;0.40;;;0.40;;
13991;SDS011;7070;53.586;9.692;2022-10-16T01:04:43;0.40;;;0.40;;
13991;SDS011;7070;53.586;9.692;2022-10-16T01:07:14;0.40;;;0.40;;
13991;SDS011;7070;53.586;9.692;2022-10-16T01:09:51;0.40;;;0.40;;
13991;SDS011;7070;53.586;9.692;2022-10-16T01:12:28;0.40;;;0.40;;
13991;SDS011;7070;53.586;9.692;2022-10-16T01:15:05;0.40;;;0.40;;
13991;SDS011;7070;53.586;9.692;2022-10-16T01:17:41;0.43;;;0.43;;
13991;SDS011;7070;53.586;9.692;2022-10-16T01:20:13;0.30;;;0.30;;
13991;SDS011;7070;53.586;9.692;2022-10-16T01:22:50;0.50;;;0.50;;
13991;SDS011;7070;53.586;9.692;2022-10-16T01:25:30;0.40;;;0.40;;
13991;SDS011;7070;53.586;9.692;2022-10-16T01:28:09;0.40;;;0.40;;
13991;SDS011;7070;53.586;9.692;2022-10-16T01:30:39;0.40;;;0.40;;
13991;SDS011;7070;53.586;9.692;2022-10-16T01:33:09;0.50;;;0.50;;
13991;SDS011;7070;53.586;9.692;2022-10-16T01:35:41;0.40;;;0.40;;
13991;SDS011;7070;53.586;9.692;2022-10-16T01:38:12;0.50;;;0.50;;
13991;SDS011;7070;53.586;9.692;2022-10-16T01:40:43;0.40;;;0.40;;
13991;SDS011;7070;53.586;9.692;2022-10-16T01:43:16;0.50;;;0.50;;
13991;SDS011;7070;53.586;9.692;2022-10-16T01:45:46;0.50;;;0.50;;
13991;SDS011;7070;53.586;9.692;2022-10-16T01:48:14;0.40;;;0.40;;
13991;SDS011;7070;53.586;9.692;2022-10-16T01:50:44;0.40;;;0.40;;
13991;SDS011;7070;53.586;9.692;2022-10-16T01:53:18;0.40;;;0.40;;
13991;SDS011;7070;53.586;9.692;2022-10-16T01:55:46;0.50;;;0.50;;
13991;SDS011;7070;53.586;9.692;2022-10-16T01:58:16;0.50;;;0.50;;
13991;SDS011;7070;53.586;9.692;2022-10-16T02:00:43;0.40;;;0.40;;
13991;SDS011;7070;53.586;9.692;2022-10-16T02:03:12;0.50;;;0.50;;
13991;SDS011;7070;53.586;9.692;2022-10-16T02:05:42;0.50;;;0.50;;
13991;SDS011;7070;53.586;9.692;2022-10-16T02:08:11;0.50;;;0.50;;
13991;SDS011;7070;53.586;9.692;2022-10-16T02:10:39;0.40;;;0.40;;
13991;SDS011;7070;53.586;9.692;2022-10-16T02:13:06;0.50;;;0.50;;
13991;SDS011;7070;53.586;9.692;2022-10-16T02:15:38;0.40;;;0.40;;
13991;SDS011;7070;53.586;9.692;2022-10-16T02:18:05;0.50;;;0.50;;
13991;SDS011;7070;53.586;9.692;2022-10-16T02:20:34;0.47;;;0.47;;
13991;SDS011;7070;53.586;9.692;2022-10-16T02:23:11;0.50;;;0.50;;
13991;SDS011;7070;53.586;9.692;2022-10-16T02:25:42;0.40;;;0.40;;
13991;SDS011;7070;53.586;9.692;2022-10-16T02:28:13;0.40;;;0.40;;
13991;SDS011;7070;53.586;9.692;2022-10-16T02:30:45;0.50;;;0.50;;
13991;SDS011;7070;53.586;9.692;2022-10-16T02:33:15;0.40;;;0.40;;
13991;SDS011;7070;53.586;9.692;2022-10-16T02:35:46;0.40;;;0.40;;
13991;SDS011;7070;53.586;9.692;2022-10-16T02:38:15;0.50;;;0.50;;
13991;SDS011;7070;53.586;9.692;2022-10-16T02:40:44;0.43;;;0.43;;
13991;SDS011;7070;53.586;9.692;2022-10-16T02:43:11;0.40;;;0.40;;
13991;SDS011;7070;53.586;9.692;2022-10-16T02:45:38;0.50;;;0.50;;
13991;SDS011;7070;53.586;9.692;2022-10-16T02:48:06;0.50;;;0.50;;
13991;SDS011;7070;53.586;9.692;2022-10-16T02:50:33;0.40;;;0.40;;
13991;SDS011;7070;53.586;9.692;2022-10-16T02:53:00;0.50;;;0.50;;
13991;SDS011;7070;53.586;9.692;2022-10-16T02:55:27;0.40;;;0.40;;
13991;SDS011;7070;53.586;9.692;2022-10-16T02:57:54;0.50;;;0.50;;
13991;SDS011;7070;53.586;9.692;2022-10-16T03:00:21;0.40;;;0.40;;
13991;SDS011;7070;53.586;9.692;2022-10-16T03:02:48;0.40;;;0.40;;
13991;SDS011;7070;53.586;9.692;2022-10-16T03:05:16;0.40;;;0.40;;
13991;SDS011;7070;53.586;9.692;2022-10-16T03:07:43;0.50;;;0.50;;
13991;SDS011;7070;53.586;9.692;2022-10-16T03:10:10;0.40;;;0.40;;
13991;SDS011;7070;53.586;9.692;2022-10-16T03:12:37;0.50;;;0.50;;
13991;SDS011;7070;53.586;9.692;2022-10-16T03:15:04;0.43;;;0.43;;
13991;SDS011;7070;53.586;9.692;2022-10-16T03:17:31;0.47;;;0.47;;
13991;SDS011;7070;53.586;9.692;2022-10-16T03:19:58;0.50;;;0.50;;
13991;SDS011;7070;53.586;9.692;2022-10-16T03:22:26;0.50;;;0.50;;
13991;SDS011;7070;53.586;9.692;2022-10-16T03:24:53;0.50;;;0.50;;
13991;SDS011;7070;53.586;9.692;2022-10-16T03:27:20;0.40;;;0.40;;
13991;SDS011;7070;53.586;9.692;2022-10-16T03:29:47;0.50;;;0.50;;
13991;SDS011;7070;53.586;9.692;2022-10-16T03:32:14;0.50;;;0.50;;
13991;SDS011;7070;53.586;9.692;2022-10-16T03:34:41;0.50;;;0.50;;
13991;SDS011;7070;53.586;9.692;2022-10-16T03:37:08;0.50;;;0.50;;
13991;SDS011;7070;53.586;9.692;2022-10-16T03:39:36;0.50;;;0.50;;
13991;SDS011;7070;53.586;9.692;2022-10-16T03:42:02;0.50;;;0.50;;
13991;SDS011;7070;53.586;9.692;2022-10-16T03:44:29;0.43;;;0.43;;
13991;SDS011;7070;53.586;9.692;2022-10-16T03:46:56;0.60;;;0.60;;
13991;SDS011;7070;53.586;9.692;2022-10-16T03:49:23;0.40;;;0.40;;
13991;SDS011;7070;53.586;9.692;2022-10-16T03:51:49;0.50;;;0.50;;
13991;SDS011;7070;53.586;9.692;2022-10-16T03:54:16;0.50;;;0.50;;
13991;SDS011;7070;53.586;9.692;2022-10-16T03:56:44;0.60;;;0.60;;
13991;SDS011;7070;53.586;9.692;2022-10-16T03:59:11;0.50;;;0.50;;
13991;SDS011;7070;53.586;9.692;2022-10-16T04:01:38;0.50;;;0.50;;
13991;SDS011;7070;53.586;9.692;2022-10-16T04:04:04;0.50;;;0.50;;
13991;SDS011;7070;53.586;9.692;2022-10-16T04:06:31;0.60;;;0.60;;
13991;SDS011;7070;53.586;9.692;2022-10-16T04:08:58;0.50;;;0.50;;
13991;SDS011;7070;53.586;9.692;2022-10-16T04:11:24;0.50;;;0.50;;
13991;SDS011;7070;53.586;9.692;2022-10-16T04:13:53;0.50;;;0.50;;
13991;SDS011;7070;53.586;9.692;2022-10-16T04:16:20;0.50;;;0.50;;
13991;SDS011;7070;53.586;9.692;2022-10-16T04:18:47;0.50;;;0.50;;
13991;SDS011;7070;53.586;9.692;2022-10-16T04:21:14;0.50;;;0.50;;
13991;SDS011;7070;53.586;9.692;2022-10-16T04:23:41;0.40;;;0.40;;
13991;SDS011;7070;53.586;9.692;2022-10-16T04:26:08;0.50;;;0.50;;
13991;SDS011;7070;53.586;9.692;2022-10-16T04:28:35;0.50;;;0.50;;
13991;SDS011;7070;53.586;9.692;2022-10-16T04:31:04;0.50;;;0.50;;
13991;SDS011;7070;53.586;9.692;2022-10-16T04:33:31;0.50;;;0.50;;
13991;SDS011;7070;53.586;9.692;2022-10-16T04:35:59;0.60;;;0.60;;
13991;SDS011;7070;53.586;9.692;2022-10-16T04:38:26;0.53;;;0.53;;
13991;SDS011;7070;53.586;9.692;2022-10-16T04:40:53;0.50;;;0.50;;
13991;SDS011;7070;53.586;9.692;2022-10-16T04:43:20;0.50;;;0.50;;
13991;SDS011;7070;53.586;9.692;2022-10-16T04:45:47;0.50;;;0.50;;
13991;SDS011;7070;53.586;9.692;2022-10-16T04:48:17;0.50;;;0.50;;
13991;SDS011;7070;53.586;9.692;2022-10-16T04:50:44;0.50;;;0.50;;
13991;SDS011;7070;53.586;9.692;2022-10-16T04:53:11;0.50;;;0.50;;
13991;SDS011;7070;53.586;9.692;2022-10-16T04:55:38;0.50;;;0.50;;
13991;SDS011;7070;53.586;9.692;2022-10-16T04:58:04;0.50;;;0.50;;
13991;SDS011;7070;53.586;9.692;2022-10-16T05:00:31;0.50;;;0.50;;
13991;SDS011;7070;53.586;9.692;2022-10-16T05:02:58;0.40;;;0.40;;
13991;SDS011;7070;53.586;9.692;2022-10-16T05:05:27;0.50;;;0.50;;
13991;SDS011;7070;53.586;9.692;2022-10-16T05:08:03;0.50;;;0.50;;
13991;SDS011;7070;53.586;9.692;2022-10-16T05:10:30;0.50;;;0.50;;
13991;SDS011;7070;53.586;9.692;2022-10-16T05:12:56;0.50;;;0.50;;
13991;SDS011;7070;53.586;9.692;2022-10-16T05:15:23;0.60;;;0.60;;
13991;SDS011;7070;53.586;9.692;2022-10-16T05:17:52;0.50;;;0.50;;
13991;SDS011;7070;53.586;9.692;2022-10-16T05:20:19;0.50;;;0.50;;
13991;SDS011;7070;53.586;9.692;2022-10-16T05:22:47;0.50;;;0.50;;
13991;SDS011;7070;53.586;9.692;2022-10-16T05:25:14;0.40;;;0.40;;
13991;SDS011;7070;53.586;9.692;2022-10-16T05:27:41;0.40;;;0.40;;
13991;SDS011;7070;53.586;9.692;2022-10-16T05:30:08;0.50;;;0.50;;
13991;SDS011;7070;53.586;9.692;2022-10-16T05:32:35;0.50;;;0.50;;
13991;SDS011;7070;53.586;9.692;2022-10-16T05:35:02;0.50;;;0.50;;
13991;SDS011;7070;53.586;9.692;2022-10-16T05:37:29;0.50;;;0.50;;
13991;SDS011;7070;53.586;9.692;2022-10-16T05:39:58;0.50;;;0.50;;
13991;SDS011;7070;53.586;9.692;2022-10-16T05:42:24;0.50;;;0.50;;
13991;SDS011;7070;53.586;9.692;2022-10-16T05:44:51;0.50;;;0.50;;
13991;SDS011;7070;53.586;9.692;2022-10-16T05:47:18;0.40;;;0.40;;
13991;SDS011;7070;53.586;9.692;2022-10-16T05:49:45;0.40;;;0.40;;
13991;SDS011;7070;53.586;9.692;2022-10-16T05:52:12;0.50;;;0.50;;
13991;SDS011;7070;53.586;9.692;2022-10-16T05:54:39;0.50;;;0.50;;
13991;SDS011;7070;53.586;9.692;2022-10-16T05:57:07;0.30;;;0.30;;
13991;SDS011;7070;53.586;9.692;2022-10-16T05:59:34;0.40;;;0.40;;
13991;SDS011;7070;53.586;9.692;2022-10-16T06:02:01;0.40;;;0.40;;
13991;SDS011;7070;53.586;9.692;2022-10-16T06:04:28;0.50;;;0.50;;
13991;SDS011;7070;53.586;9.692;2022-10-16T06:06:57;0.40;;;0.40;;
13991;SDS011;7070;53.586;9.692;2022-10-16T06:09:26;0.50;;;0.50;;
13991;SDS011;7070;53.586;9.692;2022-10-16T06:11:53;0.43;;;0.43;;
13991;SDS011;7070;53.586;9.692;2022-10-16T06:14:21;0.50;;;0.50;;
13991;SDS011;7070;53.586;9.692;2022-10-16T06:16:47;0.50;;;0.50;;
13991;SDS011;7070;53.586;9.692;2022-10-16T06:19:14;0.40;;;0.40;;
13991;SDS011;7070;53.586;9.692;2022-10-16T06:21:42;0.50;;;0.50;;
13991;SDS011;7070;53.586;9.692;2022-10-16T06:24:09;0.50;;;0.50;;
13991;SDS011;7070;53.586;9.692;2022-10-16T06:26:36;0.50;;;0.50;;
13991;SDS011;7070;53.586;9.692;2022-10-16T06:29:04;0.50;;;0.50;;
13991;SDS011;7070;53.586;9.692;2022-10-16T06:31:32;0.50;;;0.50;;
13991;SDS011;7070;53.586;9.692;2022-10-16T06:33:59;0.43;;;0.43;;
13991;SDS011;7070;53.586;9.692;2022-10-16T06:36:26;0.50;;;0.50;;
13991;SDS011;7070;53.586;9.692;2022-10-16T06:38:53;0.40;;;0.40;;
13991;SDS011;7070;53.586;9.692;2022-10-16T06:41:20;0.60;;;0.60;;
13991;SDS011;7070;53.586;9.692;2022-10-16T06:43:48;0.40;;;0.40;;
13991;SDS011;7070;53.586;9.692;2022-10-16T06:46:16;0.50;;;0.50;;
13991;SDS011;7070;53.586;9.692;2022-10-16T06:48:45;0.40;;;0.40;;
13991;SDS011;7070;53.586;9.692;2022-10-16T06:51:13;0.50;;;0.50;;
13991;SDS011;7070;53.586;9.692;2022-10-16T06:53:41;0.57;;;0.57;;
13991;SDS011;7070;53.586;9.692;2022-10-16T06:56:10;0.50;;;0.50;;
13991;SDS011;7070;53.586;9.692;2022-10-16T06:58:38;0.50;;;0.50;;
13991;SDS011;7070;53.586;9.692;2022-10-16T07:01:05;0.40;;;0.40;;
13991;SDS011;7070;53.586;9.692;2022-10-16T07:03:33;0.50;;;0.50;;
13991;SDS011;7070;53.586;9.692;2022-10-16T07:06:03;0.50;;;0.50;;
13991;SDS011;7070;53.586;9.692;2022-10-16T07:08:31;0.40;;;0.40;;
13991;SDS011;7070;53.586;9.692;2022-10-16T07:10:59;0.40;;;0.40;;
13991;SDS011;7070;53.586;9.692;2022-10-16T07:13:26;0.40;;;0.40;;
13991;SDS011;7070;53.586;9.692;2022-10-16T07:15:53;0.50;;;0.50;;
13991;SDS011;7070;53.586;9.692;2022-10-16T07:18:19;0.50;;;0.50;;
13991;SDS011;7070;53.586;9.692;2022-10-16T07:20:51;0.47;;;0.47;;
13991;SDS011;7070;53.586;9.692;2022-10-16T07:23:19;0.43;;;0.43;;
13991;SDS011;7070;53.586;9.692;2022-10-16T07:25:45;0.50;;;0.50;;
13991;SDS011;7070;53.586;9.692;2022-10-16T07:28:19;0.50;;;0.50;;
13991;SDS011;7070;53.586;9.692;2022-10-16T07:30:46;0.40;;;0.40;;
13991;SDS011;7070;53.586;9.692;2022-10-16T07:33:13;0.40;;;0.40;;
13991;SDS011;7070;53.586;9.692;2022-10-16T07:35:47;0.50;;;0.50;;
13991;SDS011;7070;53.586;9.692;2022-10-16T07:38:14;0.50;;;0.50;;
13991;SDS011;7070;53.586;9.692;2022-10-16T07:40:42;0.50;;;0.50;;
13991;SDS011;7070;53.586;9.692;2022-10-16T07:43:09;0.40;;;0.40;;
13991;SDS011;7070;53.586;9.692;2022-10-16T07:45:36;0.50;;;0.50;;
13991;SDS011;7070;53.586;9.692;2022-10-16T07:48:03;0.30;;;0.30;;
13991;SDS011;7070;53.586;9.692;2022-10-16T07:50:30;0.40;;;0.40;;
13991;SDS011;7070;53.586;9.692;2022-10-16T07:52:57;0.50;;;0.50;;
13991;SDS011;7070;53.586;9.692;2022-10-16T07:55:23;0.50;;;0.50;;
13991;SDS011;7070;53.586;9.692;2022-10-16T07:57:52;0.40;;;0.40;;
13991;SDS011;7070;53.586;9.692;2022-10-16T08:00:18;0.37;;;0.37;;
13991;SDS011;7070;53.586;9.692;2022-10-16T08:02:45;0.40;;;0.40;;
13991;SDS011;7070;53.586;9.692;2022-10-16T08:05:12;0.40;;;0.40;;
13991;SDS011;7070;53.586;9.692;2022-10-16T08:07:39;0.40;;;0.40;;
13991;SDS011;7070;53.586;9.692;2022-10-16T08:10:06;0.47;;;0.47;;
13991;SDS011;7070;53.586;9.692;2022-10-16T08:12:33;0.40;;;0.40;;
13991;SDS011;7070;53.586;9.692;2022-10-16T08:15:01;0.40;;;0.40;;
13991;SDS011;7070;53.586;9.692;2022-10-16T08:17:28;0.40;;;0.40;;
13991;SDS011;7070;53.586;9.692;2022-10-16T08:19:54;0.40;;;0.40;;
13991;SDS011;7070;53.586;9.692;2022-10-16T08:22:21;0.40;;;0.40;;
13991;SDS011;7070;53.586;9.692;2022-10-16T08:24:48;0.40;;;0.40;;
13991;SDS011;7070;53.586;9.692;2022-10-16T08:27:15;0.40;;;0.40;;
13991;SDS011;7070;53.586;9.692;2022-10-16T08:29:41;0.40;;;0.40;;
13991;SDS011;7070;53.586;9.692;2022-10-16T08:32:09;0.40;;;0.40;;
13991;SDS011;7070;53.586;9.692;2022-10-16T08:34:36;0.40;;;0.40;;
13991;SDS011;7070;53.586;9.692;2022-10-16T08:37:03;0.37;;;0.37;;
13991;SDS011;7070;53.586;9.692;2022-10-16T08:39:29;0.40;;;0.40;;
13991;SDS011;7070;53.586;9.692;2022-10-16T08:42:03;0.40;;;0.40;;
13991;SDS011;7070;53.586;9.692;2022-10-16T08:48:02;0.40;;;0.40;;
13991;SDS011;7070;53.586;9.692;2022-10-16T08:50:38;0.40;;;0.40;;
13991;SDS011;7070;53.586;9.692;2022-10-16T08:53:06;0.40;;;0.40;;
13991;SDS011;7070;53.586;9.692;2022-10-16T08:55:37;0.40;;;0.40;;
13991;SDS011;7070;53.586;9.692;2022-10-16T08:58:10;0.40;;;0.40;;
13991;SDS011;7070;53.586;9.692;2022-10-16T09:00:38;0.40;;;0.40;;
13991;SDS011;7070;53.586;9.692;2022-10-16T09:03:10;0.33;;;0.33;;
13991;SDS011;7070;53.586;9.692;2022-10-16T09:05:54;0.30;;;0.30;;
13991;SDS011;7070;53.586;9.692;2022-10-16T09:08:32;0.50;;;0.50;;
13991;SDS011;7070;53.586;9.692;2022-10-16T09:11:07;0.40;;;0.40;;
13991;SDS011;7070;53.586;9.692;2022-10-16T09:13:39;0.40;;;0.40;;
13991;SDS011;7070;53.586;9.692;2022-10-16T09:16:14;0.40;;;0.40;;
13991;SDS011;7070;53.586;9.692;2022-10-16T09:18:51;0.30;;;0.30;;
13991;SDS011;7070;53.586;9.692;2022-10-16T09:21:23;0.40;;;0.40;;
13991;SDS011;7070;53.586;9.692;2022-10-16T09:23:52;0.40;;;0.40;;
13991;SDS011;7070;53.586;9.692;2022-10-16T09:26:23;0.30;;;0.30;;
13991;SDS011;7070;53.586;9.692;2022-10-16T09:28:51;0.40;;;0.40;;
13991;SDS011;7070;53.586;9.692;2022-10-16T09:31:20;0.30;;;0.30;;
13991;SDS011;7070;53.586;9.692;2022-10-16T09:33:50;0.40;;;0.40;;
13991;SDS011;7070;53.586;9.692;2022-10-16T09:36:20;0.30;;;0.30;;
13991;SDS011;7070;53.586;9.692;2022-10-16T09:38:49;0.40;;;0.40;;
13991;SDS011;7070;53.586;9.692;2022-10-16T09:41:19;0.50;;;0.50;;
13991;SDS011;7070;53.586;9.692;2022-10-16T09:43:52;0.40;;;0.40;;
13991;SDS011;7070;53.586;9.692;2022-10-16T09:46:22;0.40;;;0.40;;
13991;SDS011;7070;53.586;9.692;2022-10-16T09:48:54;0.37;;;0.37;;
13991;SDS011;7070;53.586;9.692;2022-10-16T09:51:23;0.40;;;0.40;;
13991;SDS011;7070;53.586;9.692;2022-10-16T09:53:54;0.40;;;0.40;;
13991;SDS011;7070;53.586;9.692;2022-10-16T09:56:23;0.30;;;0.30;;
13991;SDS011;7070;53.586;9.692;2022-10-16T09:58:51;0.30;;;0.30;;
13991;SDS011;7070;53.586;9.692;2022-10-16T10:01:19;0.40;;;0.40;;
13991;SDS011;7070;53.586;9.692;2022-10-16T10:03:47;0.30;;;0.30;;
13991;SDS011;7070;53.586;9.692;2022-10-16T10:06:23;0.40;;;0.40;;
13991;SDS011;7070;53.586;9.692;2022-10-16T10:08:56;0.40;;;0.40;;
13991;SDS011;7070;53.586;9.692;2022-10-16T10:11:40;0.30;;;0.30;;
13991;SDS011;7070;53.586;9.692;2022-10-16T10:14:13;0.30;;;0.30;;
13991;SDS011;7070;53.586;9.692;2022-10-16T10:16:46;0.30;;;0.30;;
13991;SDS011;7070;53.586;9.692;2022-10-16T10:19:14;0.40;;;0.40;;
13991;SDS011;7070;53.586;9.692;2022-10-16T10:21:43;0.37;;;0.37;;
13991;SDS011;7070;53.586;9.692;2022-10-16T10:24:11;0.30;;;0.30;;
13991;SDS011;7070;53.586;9.692;2022-10-16T10:26:38;0.33;;;0.33;;
13991;SDS011;7070;53.586;9.692;2022-10-16T10:29:14;0.30;;;0.30;;
13991;SDS011;7070;53.586;9.692;2022-10-16T10:31:51;0.30;;;0.30;;
13991;SDS011;7070;53.586;9.692;2022-10-16T10:34:34;0.30;;;0.30;;
13991;SDS011;7070;53.586;9.692;2022-10-16T10:37:15;0.40;;;0.40;;
13991;SDS011;7070;53.586;9.692;2022-10-16T10:39:55;0.30;;;0.30;;
13991;SDS011;7070;53.586;9.692;2022-10-16T10:42:30;0.30;;;0.30;;
13991;SDS011;7070;53.586;9.692;2022-10-16T10:47:54;0.30;;;0.30;;
13991;SDS011;7070;53.586;9.692;2022-10-16T10:50:30;0.30;;;0.30;;
13991;SDS011;7070;53.586;9.692;2022-10-16T10:53:06;0.40;;;0.40;;
13991;SDS011;7070;53.586;9.692;2022-10-16T10:55:39;0.30;;;0.30;;
13991;SDS011;7070;53.586;9.692;2022-10-16T10:58:13;0.30;;;0.30;;
13991;SDS011;7070;53.586;9.692;2022-10-16T11:01:09;0.40;;;0.40;;
13991;SDS011;7070;53.586;9.692;2022-10-16T11:03:46;0.40;;;0.40;;
13991;SDS011;7070;53.586;9.692;2022-10-16T11:06:42;0.40;;;0.40;;
13991;SDS011;7070;53.586;9.692;2022-10-16T11:09:15;0.30;;;0.30;;
13991;SDS011;7070;53.586;9.692;2022-10-16T11:11:45;0.20;;;0.20;;
13991;SDS011;7070;53.586;9.692;2022-10-16T11:14:17;0.20;;;0.20;;
13991;SDS011;7070;53.586;9.692;2022-10-16T11:16:49;0.30;;;0.30;;
13991;SDS011;7070;53.586;9.692;2022-10-16T11:19:22;0.30;;;0.30;;
13991;SDS011;7070;53.586;9.692;2022-10-16T11:22:00;0.30;;;0.30;;
13991;SDS011;7070;53.586;9.692;2022-10-16T11:24:35;0.40;;;0.40;;
13991;SDS011;7070;53.586;9.692;2022-10-16T11:27:08;0.30;;;0.30;;
13991;SDS011;7070;53.586;9.692;2022-10-16T11:29:42;0.30;;;0.30;;
13991;SDS011;7070;53.586;9.692;2022-10-16T11:32:15;0.40;;;0.40;;
13991;SDS011;7070;53.586;9.692;2022-10-16T11:34:49;0.30;;;0.30;;
13991;SDS011;7070;53.586;9.692;2022-10-16T11:37:18;0.30;;;0.30;;
13991;SDS011;7070;53.586;9.692;2022-10-16T11:39:51;0.40;;;0.40;;
13991;SDS011;7070;53.586;9.692;2022-10-16T11:42:22;0.30;;;0.30;;
13991;SDS011;7070;53.586;9.692;2022-10-16T11:44:57;0.30;;;0.30;;
13991;SDS011;7070;53.586;9.692;2022-10-16T11:47:27;0.30;;;0.30;;
13991;SDS011;7070;53.586;9.692;2022-10-16T11:50:00;0.30;;;0.30;;
13991;SDS011;7070;53.586;9.692;2022-10-16T11:52:31;0.20;;;0.20;;
13991;SDS011;7070;53.586;9.692;2022-10-16T11:55:09;0.30;;;0.30;;
13991;SDS011;7070;53.586;9.692;2022-10-16T11:57:42;0.30;;;0.30;;
13991;SDS011;7070;53.586;9.692;2022-10-16T12:00:15;0.30;;;0.30;;
13991;SDS011;7070;53.586;9.692;2022-10-16T12:02:50;0.30;;;0.30;;
13991;SDS011;7070;53.586;9.692;2022-10-16T12:05:24;0.30;;;0.30;;
13991;SDS011;7070;53.586;9.692;2022-10-16T12:08:01;0.30;;;0.30;;
13991;SDS011;7070;53.586;9.692;2022-10-16T12:10:34;0.30;;;0.30;;
13991;SDS011;7070;53.586;9.692;2022-10-16T12:13:02;0.30;;;0.30;;
13991;SDS011;7070;53.586;9.692;2022-10-16T12:15:30;0.30;;;0.30;;
13991;SDS011;7070;53.586;9.692;2022-10-16T12:17:58;0.20;;;0.20;;
13991;SDS011;7070;53.586;9.692;2022-10-16T12:20:26;0.30;;;0.30;;
13991;SDS011;7070;53.586;9.692;2022-10-16T12:22:57;0.30;;;0.30;;
13991;SDS011;7070;53.586;9.692;2022-10-16T12:25:26;0.20;;;0.20;;
13991;SDS011;7070;53.586;9.692;2022-10-16T12:27:58;0.20;;;0.20;;
13991;SDS011;7070;53.586;9.692;2022-10-16T12:30:27;0.30;;;0.30;;
13991;SDS011;7070;53.586;9.692;2022-10-16T12:32:56;0.20;;;0.20;;
13991;SDS011;7070;53.586;9.692;2022-10-16T12:35:25;0.30;;;0.30;;
13991;SDS011;7070;53.586;9.692;2022-10-16T12:37:54;0.30;;;0.30;;
13991;SDS011;7070;53.586;9.692;2022-10-16T12:40:32;0.30;;;0.30;;
13991;SDS011;7070;53.586;9.692;2022-10-16T12:43:12;0.30;;;0.30;;
13991;SDS011;7070;53.586;9.692;2022-10-16T12:46:04;0.30;;;0.30;;
13991;SDS011;7070;53.586;9.692;2022-10-16T12:48:46;0.30;;;0.30;;
13991;SDS011;7070;53.586;9.692;2022-10-16T12:51:21;0.40;;;0.40;;
13991;SDS011;7070;53.586;9.692;2022-10-16T12:53:57;0.40;;;0.40;;
13991;SDS011;7070;53.586;9.692;2022-10-16T12:56:26;0.30;;;0.30;;
13991;SDS011;7070;53.586;9.692;2022-10-16T12:59:06;0.30;;;0.30;;
13991;SDS011;7070;53.586;9.692;2022-10-16T13:01:44;0.30;;;0.30;;
13991;SDS011;7070;53.586;9.692;2022-10-16T13:04:31;0.30;;;0.30;;
13991;SDS011;7070;53.586;9.692;2022-10-16T13:07:19;0.30;;;0.30;;
13991;SDS011;7070;53.586;9.692;2022-10-16T13:10:04;0.30;;;0.30;;
13991;SDS011;7070;53.586;9.692;2022-10-16T13:12:46;0.30;;;0.30;;
13991;SDS011;7070;53.586;9.692;2022-10-16T13:15:31;0.30;;;0.30;;
13991;SDS011;7070;53.586;9.692;2022-10-16T13:18:13;0.40;;;0.40;;
13991;SDS011;7070;53.586;9.692;2022-10-16T13:20:51;0.30;;;0.30;;
13991;SDS011;7070;53.586;9.692;2022-10-16T13:23:25;0.40;;;0.40;;
13991;SDS011;7070;53.586;9.692;2022-10-16T13:26:01;0.30;;;0.30;;
13991;SDS011;7070;53.586;9.692;2022-10-16T13:28:35;0.30;;;0.30;;
13991;SDS011;7070;53.586;9.692;2022-10-16T13:31:09;0.40;;;0.40;;
13991;SDS011;7070;53.586;9.692;2022-10-16T13:33:42;0.40;;;0.40;;
13991;SDS011;7070;53.586;9.692;2022-10-16T13:36:18;0.20;;;0.20;;
13991;SDS011;7070;53.586;9.692;2022-10-16T13:38:46;0.30;;;0.30;;
13991;SDS011;7070;53.586;9.692;2022-10-16T13:41:14;0.20;;;0.20;;
13991;SDS011;7070;53.586;9.692;2022-10-16T13:43:42;0.30;;;0.30;;
13991;SDS011;7070;53.586;9.692;2022-10-16T13:46:13;0.30;;;0.30;;
13991;SDS011;7070;53.586;9.692;2022-10-16T13:48:41;0.30;;;0.30;;
13991;SDS011;7070;53.586;9.692;2022-10-16T13:51:12;0.40;;;0.40;;
13991;SDS011;7070;53.586;9.692;2022-10-16T13:53:40;0.27;;;0.27;;
13991;SDS011;7070;53.586;9.692;2022-10-16T13:56:10;0.40;;;0.40;;
13991;SDS011;7070;53.586;9.692;2022-10-16T13:58:38;0.20;;;0.20;;
13991;SDS011;7070;53.586;9.692;2022-10-16T14:01:06;0.30;;;0.30;;
13991;SDS011;7070;53.586;9.692;2022-10-16T14:03:44;0.20;;;0.20;;
13991;SDS011;7070;53.586;9.692;2022-10-16T14:06:13;0.40;;;0.40;;
13991;SDS011;7070;53.586;9.692;2022-10-16T14:08:43;0.30;;;0.30;;
13991;SDS011;7070;53.586;9.692;2022-10-16T14:11:19;0.40;;;0.40;;
13991;SDS011;7070;53.586;9.692;2022-10-16T14:13:48;0.40;;;0.40;;
13991;SDS011;7070;53.586;9.692;2022-10-16T14:16:18;0.37;;;0.37;;
13991;SDS011;7070;53.586;9.692;2022-10-16T14:18:47;0.30;;;0.30;;
13991;SDS011;7070;53.586;9.692;2022-10-16T14:21:21;0.33;;;0.33;;
13991;SDS011;7070;53.586;9.692;2022-10-16T14:23:48;0.30;;;0.30;;
13991;SDS011;7070;53.586;9.692;2022-10-16T14:26:15;0.30;;;0.30;;
13991;SDS011;7070;53.586;9.692;2022-10-16T14:28:45;0.40;;;0.40;;
13991;SDS011;7070;53.586;9.692;2022-10-16T14:31:23;0.30;;;0.30;;
13991;SDS011;7070;53.586;9.692;2022-10-16T14:33:54;0.30;;;0.30;;
13991;SDS011;7070;53.586;9.692;2022-10-16T14:36:22;0.40;;;0.40;;
13991;SDS011;7070;53.586;9.692;2022-10-16T14:38:51;0.30;;;0.30;;
13991;SDS011;7070;53.586;9.692;2022-10-16T14:41:24;0.30;;;0.30;;
13991;SDS011;7070;53.586;9.692;2022-10-16T14:43:51;0.30;;;0.30;;
13991;SDS011;7070;53.586;9.692;2022-10-16T14:46:21;0.30;;;0.30;;
13991;SDS011;7070;53.586;9.692;2022-10-16T14:49:00;0.30;;;0.30;;
13991;SDS011;7070;53.586;9.692;2022-10-16T14:51:29;0.30;;;0.30;;
13991;SDS011;7070;53.586;9.692;2022-10-16T14:53:56;0.40;;;0.40;;
13991;SDS011;7070;53.586;9.692;2022-10-16T14:56:24;0.50;;;0.50;;
13991;SDS011;7070;53.586;9.692;2022-10-16T14:58:53;0.40;;;0.40;;
13991;SDS011;7070;53.586;9.692;2022-10-16T15:01:22;0.40;;;0.40;;
13991;SDS011;7070;53.586;9.692;2022-10-16T15:03:50;0.40;;;0.40;;
13991;SDS011;7070;53.586;9.692;2022-10-16T15:06:19;0.30;;;0.30;;
13991;SDS011;7070;53.586;9.692;2022-10-16T15:08:46;0.40;;;0.40;;
13991;SDS011;7070;53.586;9.692;2022-10-16T15:11:15;0.33;;;0.33;;
13991;SDS011;7070;53.586;9.692;2022-10-16T15:13:43;0.30;;;0.30;;
13991;SDS011;7070;53.586;9.692;2022-10-16T15:16:10;0.30;;;0.30;;
13991;SDS011;7070;53.586;9.692;2022-10-16T15:18:38;0.30;;;0.30;;
13991;SDS011;7070;53.586;9.692;2022-10-16T15:21:06;0.30;;;0.30;;
13991;SDS011;7070;53.586;9.692;2022-10-16T15:23:33;0.40;;;0.40;;